sensor_id;sensor_type;location;lat;lon;timestamp;temperature;humidity
17284;DHT22;8760;52.248;20.952;2022-09-29T00:00:20;9.10;99.90
17284;DHT22;8760;52.248;20.952;2022-09-29T00:02:46;9.10;99.90
17284;DHT22;8760;52.248;20.952;2022-09-29T00:05:13;9.00;99.90
17284;DHT22;8760;52.248;20.952;2022-09-29T00:07:40;9.10;99.90
17284;DHT22;8760;52.248;20.952;2022-09-29T00:10:07;9.00;99.90
17284;DHT22;8760;52.248;20.952;2022-09-29T00:12:34;9.10;99.90
17284;DHT22;8760;52.248;20.952;2022-09-29T00:15:03;9.00;99.90
17284;DHT22;8760;52.248;20.952;2022-09-29T00:17:30;9.00;99.90
17284;DHT22;8760;52.248;20.952;2022-09-29T00:19:57;9.00;99.90
17284;DHT22;8760;52.248;20.952;2022-09-29T00:22:23;9.00;99.90
17284;DHT22;8760;52.248;20.952;2022-09-29T00:24:50;9.00;99.90
17284;DHT22;8760;52.248;20.952;2022-09-29T00:27:17;8.90;99.90
17284;DHT22;8760;52.248;20.952;2022-09-29T00:29:45;8.90;99.90
17284;DHT22;8760;52.248;20.952;2022-09-29T00:32:13;9.00;99.90
17284;DHT22;8760;52.248;20.952;2022-09-29T00:34:40;8.90;99.90
17284;DHT22;8760;52.248;20.952;2022-09-29T00:37:07;8.90;99.90
17284;DHT22;8760;52.248;20.952;2022-09-29T00:39:34;8.90;99.90
17284;DHT22;8760;52.248;20.952;2022-09-29T00:42:00;8.90;99.90
17284;DHT22;8760;52.248;20.952;2022-09-29T00:44:54;8.90;99.90
17284;DHT22;8760;52.248;20.952;2022-09-29T00:47:24;8.90;99.90
17284;DHT22;8760;52.248;20.952;2022-09-29T00:49:55;8.90;99.90
17284;DHT22;8760;52.248;20.952;2022-09-29T00:52:27;8.90;99.90
17284;DHT22;8760;52.248;20.952;2022-09-29T00:54:58;8.80;99.90
17284;DHT22;8760;52.248;20.952;2022-09-29T00:57:30;8.80;99.90
17284;DHT22;8760;52.248;20.952;2022-09-29T01:00:01;8.80;99.90
17284;DHT22;8760;52.248;20.952;2022-09-29T01:02:33;8.80;99.90
17284;DHT22;8760;52.248;20.952;2022-09-29T01:05:03;8.80;99.90
17284;DHT22;8760;52.248;20.952;2022-09-29T01:07:31;8.80;99.90
17284;DHT22;8760;52.248;20.952;2022-09-29T01:09:59;8.80;99.90
17284;DHT22;8760;52.248;20.952;2022-09-29T01:12:26;8.70;99.90
17284;DHT22;8760;52.248;20.952;2022-09-29T01:14:53;8.80;99.90
17284;DHT22;8760;52.248;20.952;2022-09-29T01:17:21;8.70;99.90
17284;DHT22;8760;52.248;20.952;2022-09-29T01:19:58;8.70;99.90
17284;DHT22;8760;52.248;20.952;2022-09-29T01:22:45;8.80;99.90
17284;DHT22;8760;52.248;20.952;2022-09-29T01:25:35;8.70;99.90
17284;DHT22;8760;52.248;20.952;2022-09-29T01:28:18;8.70;99.90
17284;DHT22;8760;52.248;20.952;2022-09-29T01:31:03;8.70;99.90
17284;DHT22;8760;52.248;20.952;2022-09-29T01:33:38;8.60;99.90
17284;DHT22;8760;52.248;20.952;2022-09-29T01:36:11;8.70;99.90
17284;DHT22;8760;52.248;20.952;2022-09-29T01:38:52;8.70;99.90
17284;DHT22;8760;52.248;20.952;2022-09-29T01:41:26;8.60;99.90
17284;DHT22;8760;52.248;20.952;2022-09-29T01:44:01;8.60;99.90
17284;DHT22;8760;52.248;20.952;2022-09-29T01:46:33;8.60;99.90
17284;DHT22;8760;52.248;20.952;2022-09-29T01:49:03;8.60;99.90
17284;DHT22;8760;52.248;20.952;2022-09-29T01:51:35;8.50;99.90
17284;DHT22;8760;52.248;20.952;2022-09-29T01:54:05;8.60;99.90
17284;DHT22;8760;52.248;20.952;2022-09-29T01:56:37;8.50;99.90
17284;DHT22;8760;52.248;20.952;2022-09-29T01:59:11;8.50;99.90
17284;DHT22;8760;52.248;20.952;2022-09-29T02:01:44;8.40;99.90
17284;DHT22;8760;52.248;20.952;2022-09-29T02:04:15;8.50;99.90
17284;DHT22;8760;52.248;20.952;2022-09-29T02:06:48;8.50;99.90
17284;DHT22;8760;52.248;20.952;2022-09-29T02:09:21;8.50;99.90
17284;DHT22;8760;52.248;20.952;2022-09-29T02:11:51;8.50;99.90
17284;DHT22;8760;52.248;20.952;2022-09-29T02:14:21;8.60;99.90
17284;DHT22;8760;52.248;20.952;2022-09-29T02:16:54;8.50;99.90
17284;DHT22;8760;52.248;20.952;2022-09-29T02:19:25;8.50;99.90
17284;DHT22;8760;52.248;20.952;2022-09-29T02:21:54;8.50;99.90
17284;DHT22;8760;52.248;20.952;2022-09-29T02:24:21;8.40;99.90
17284;DHT22;8760;52.248;20.952;2022-09-29T02:26:48;8.40;99.90
17284;DHT22;8760;52.248;20.952;2022-09-29T02:29:16;8.50;99.90
17284;DHT22;8760;52.248;20.952;2022-09-29T02:31:44;8.50;99.90
17284;DHT22;8760;52.248;20.952;2022-09-29T02:34:15;8.50;99.90
17284;DHT22;8760;52.248;20.952;2022-09-29T02:36:53;8.50;99.90
17284;DHT22;8760;52.248;20.952;2022-09-29T02:39:31;8.50;99.90
17284;DHT22;8760;52.248;20.952;2022-09-29T02:42:10;8.50;99.90
17284;DHT22;8760;52.248;20.952;2022-09-29T02:44:51;8.50;99.90
17284;DHT22;8760;52.248;20.952;2022-09-29T02:50:35;8.50;99.90
17284;DHT22;8760;52.248;20.952;2022-09-29T02:53:11;8.50;99.90
17284;DHT22;8760;52.248;20.952;2022-09-29T02:55:43;8.50;99.90
17284;DHT22;8760;52.248;20.952;2022-09-29T02:58:17;8.50;99.90
17284;DHT22;8760;52.248;20.952;2022-09-29T03:00:45;8.50;99.90
17284;DHT22;8760;52.248;20.952;2022-09-29T03:03:12;8.50;99.90
17284;DHT22;8760;52.248;20.952;2022-09-29T03:05:40;8.50;99.90
17284;DHT22;8760;52.248;20.952;2022-09-29T03:08:07;8.40;99.90
17284;DHT22;8760;52.248;20.952;2022-09-29T03:10:34;8.40;99.90
17284;DHT22;8760;52.248;20.952;2022-09-29T03:13:00;8.40;99.90
17284;DHT22;8760;52.248;20.952;2022-09-29T03:15:27;8.30;99.90
17284;DHT22;8760;52.248;20.952;2022-09-29T03:17:54;8.40;99.90
17284;DHT22;8760;52.248;20.952;2022-09-29T03:20:22;8.30;99.90
17284;DHT22;8760;52.248;20.952;2022-09-29T03:22:50;8.40;99.90
17284;DHT22;8760;52.248;20.952;2022-09-29T03:25:20;8.30;99.90
17284;DHT22;8760;52.248;20.952;2022-09-29T03:27:49;8.30;99.90
17284;DHT22;8760;52.248;20.952;2022-09-29T03:30:16;8.30;99.90
17284;DHT22;8760;52.248;20.952;2022-09-29T03:32:43;8.20;99.90
17284;DHT22;8760;52.248;20.952;2022-09-29T03:35:11;8.20;99.90
17284;DHT22;8760;52.248;20.952;2022-09-29T03:37:37;8.20;99.90
17284;DHT22;8760;52.248;20.952;2022-09-29T03:40:07;8.20;99.90
17284;DHT22;8760;52.248;20.952;2022-09-29T03:42:34;8.20;99.90
17284;DHT22;8760;52.248;20.952;2022-09-29T03:45:01;8.20;99.90
17284;DHT22;8760;52.248;20.952;2022-09-29T03:47:28;8.20;99.90
17284;DHT22;8760;52.248;20.952;2022-09-29T03:49:54;8.20;99.90
17284;DHT22;8760;52.248;20.952;2022-09-29T03:52:21;8.20;99.90
17284;DHT22;8760;52.248;20.952;2022-09-29T03:54:48;8.20;99.90
17284;DHT22;8760;52.248;20.952;2022-09-29T03:57:16;8.20;99.90
17284;DHT22;8760;52.248;20.952;2022-09-29T03:59:43;8.20;99.90
17284;DHT22;8760;52.248;20.952;2022-09-29T04:02:09;8.10;99.90
17284;DHT22;8760;52.248;20.952;2022-09-29T04:04:36;8.10;99.90
17284;DHT22;8760;52.248;20.952;2022-09-29T04:07:03;8.10;99.90
17284;DHT22;8760;52.248;20.952;2022-09-29T04:09:29;8.10;99.90
17284;DHT22;8760;52.248;20.952;2022-09-29T04:11:56;8.10;99.90
17284;DHT22;8760;52.248;20.952;2022-09-29T04:14:24;8.10;99.90
17284;DHT22;8760;52.248;20.952;2022-09-29T04:16:51;8.10;99.90
17284;DHT22;8760;52.248;20.952;2022-09-29T04:19:18;8.10;99.90
17284;DHT22;8760;52.248;20.952;2022-09-29T04:21:44;8.10;99.90
17284;DHT22;8760;52.248;20.952;2022-09-29T04:24:11;8.10;99.90
17284;DHT22;8760;52.248;20.952;2022-09-29T04:26:38;8.10;99.90
17284;DHT22;8760;52.248;20.952;2022-09-29T04:29:05;8.10;99.90
17284;DHT22;8760;52.248;20.952;2022-09-29T04:31:34;8.10;99.90
17284;DHT22;8760;52.248;20.952;2022-09-29T04:34:00;8.10;99.90
17284;DHT22;8760;52.248;20.952;2022-09-29T04:36:27;8.10;99.90
17284;DHT22;8760;52.248;20.952;2022-09-29T04:38:54;8.10;99.90
17284;DHT22;8760;52.248;20.952;2022-09-29T04:41:21;8.20;99.90
17284;DHT22;8760;52.248;20.952;2022-09-29T04:43:48;8.20;99.90
17284;DHT22;8760;52.248;20.952;2022-09-29T04:46:15;8.20;99.90
17284;DHT22;8760;52.248;20.952;2022-09-29T04:48:43;8.30;99.90
17284;DHT22;8760;52.248;20.952;2022-09-29T04:51:09;8.30;99.90
17284;DHT22;8760;52.248;20.952;2022-09-29T04:53:36;8.30;99.90
17284;DHT22;8760;52.248;20.952;2022-09-29T04:56:07;8.30;99.90
17284;DHT22;8760;52.248;20.952;2022-09-29T04:58:34;8.30;99.90
17284;DHT22;8760;52.248;20.952;2022-09-29T05:01:05;8.30;99.90
17284;DHT22;8760;52.248;20.952;2022-09-29T05:03:33;8.30;99.90
17284;DHT22;8760;52.248;20.952;2022-09-29T05:06:01;8.40;99.90
17284;DHT22;8760;52.248;20.952;2022-09-29T05:08:28;8.40;99.90
17284;DHT22;8760;52.248;20.952;2022-09-29T05:10:54;8.40;99.90
17284;DHT22;8760;52.248;20.952;2022-09-29T05:13:21;8.40;99.90
17284;DHT22;8760;52.248;20.952;2022-09-29T05:15:49;8.50;99.90
17284;DHT22;8760;52.248;20.952;2022-09-29T05:18:15;8.50;99.90
17284;DHT22;8760;52.248;20.952;2022-09-29T05:20:42;8.50;99.90
17284;DHT22;8760;52.248;20.952;2022-09-29T05:23:10;8.60;99.90
17284;DHT22;8760;52.248;20.952;2022-09-29T05:25:37;8.60;99.90
17284;DHT22;8760;52.248;20.952;2022-09-29T05:28:04;8.60;99.90
17284;DHT22;8760;52.248;20.952;2022-09-29T05:30:32;8.70;99.90
17284;DHT22;8760;52.248;20.952;2022-09-29T05:32:58;8.70;99.90
17284;DHT22;8760;52.248;20.952;2022-09-29T05:35:25;8.70;99.90
17284;DHT22;8760;52.248;20.952;2022-09-29T05:37:52;8.70;99.90
17284;DHT22;8760;52.248;20.952;2022-09-29T05:40:20;8.70;99.90
17284;DHT22;8760;52.248;20.952;2022-09-29T05:42:48;8.70;99.90
17284;DHT22;8760;52.248;20.952;2022-09-29T05:45:15;8.80;99.90
17284;DHT22;8760;52.248;20.952;2022-09-29T05:47:43;8.80;99.90
17284;DHT22;8760;52.248;20.952;2022-09-29T05:50:10;8.80;99.90
17284;DHT22;8760;52.248;20.952;2022-09-29T05:52:37;8.70;99.90
17284;DHT22;8760;52.248;20.952;2022-09-29T05:55:05;8.70;99.90
17284;DHT22;8760;52.248;20.952;2022-09-29T05:57:35;8.80;99.90
17284;DHT22;8760;52.248;20.952;2022-09-29T06:00:02;8.80;99.90
17284;DHT22;8760;52.248;20.952;2022-09-29T06:02:30;8.70;99.90
17284;DHT22;8760;52.248;20.952;2022-09-29T06:04:58;8.80;99.90
17284;DHT22;8760;52.248;20.952;2022-09-29T06:07:25;8.80;99.90
17284;DHT22;8760;52.248;20.952;2022-09-29T06:09:52;8.80;99.90
17284;DHT22;8760;52.248;20.952;2022-09-29T06:12:19;8.80;99.90
17284;DHT22;8760;52.248;20.952;2022-09-29T06:14:47;8.80;99.90
17284;DHT22;8760;52.248;20.952;2022-09-29T06:17:14;8.80;99.90
17284;DHT22;8760;52.248;20.952;2022-09-29T06:19:41;8.80;99.90
17284;DHT22;8760;52.248;20.952;2022-09-29T06:22:08;8.80;99.90
17284;DHT22;8760;52.248;20.952;2022-09-29T06:24:35;8.80;99.90
17284;DHT22;8760;52.248;20.952;2022-09-29T06:27:02;8.80;99.90
17284;DHT22;8760;52.248;20.952;2022-09-29T06:29:29;8.80;99.90
17284;DHT22;8760;52.248;20.952;2022-09-29T06:31:57;8.80;99.90
17284;DHT22;8760;52.248;20.952;2022-09-29T06:34:23;8.70;99.90
17284;DHT22;8760;52.248;20.952;2022-09-29T06:36:51;8.70;99.90
17284;DHT22;8760;52.248;20.952;2022-09-29T06:39:35;8.70;99.90
17284;DHT22;8760;52.248;20.952;2022-09-29T06:42:02;8.80;99.90
17284;DHT22;8760;52.248;20.952;2022-09-29T06:44:29;8.70;99.90
17284;DHT22;8760;52.248;20.952;2022-09-29T06:46:58;8.70;99.90
17284;DHT22;8760;52.248;20.952;2022-09-29T06:49:25;8.70;99.90
17284;DHT22;8760;52.248;20.952;2022-09-29T06:51:52;8.70;99.90
17284;DHT22;8760;52.248;20.952;2022-09-29T06:54:20;8.80;99.90
17284;DHT22;8760;52.248;20.952;2022-09-29T06:56:50;8.80;99.90
17284;DHT22;8760;52.248;20.952;2022-09-29T06:59:17;8.80;99.90
17284;DHT22;8760;52.248;20.952;2022-09-29T07:01:44;8.90;99.90
17284;DHT22;8760;52.248;20.952;2022-09-29T07:04:16;8.90;99.90
17284;DHT22;8760;52.248;20.952;2022-09-29T07:06:43;8.90;99.90
17284;DHT22;8760;52.248;20.952;2022-09-29T07:09:11;8.90;99.90
17284;DHT22;8760;52.248;20.952;2022-09-29T07:11:41;9.00;99.90
17284;DHT22;8760;52.248;20.952;2022-09-29T07:14:11;9.00;99.90
17284;DHT22;8760;52.248;20.952;2022-09-29T07:16:38;9.10;99.90
17284;DHT22;8760;52.248;20.952;2022-09-29T07:19:04;9.10;99.90
17284;DHT22;8760;52.248;20.952;2022-09-29T07:21:32;9.20;99.90
17284;DHT22;8760;52.248;20.952;2022-09-29T07:24:00;9.10;99.90
17284;DHT22;8760;52.248;20.952;2022-09-29T07:26:27;9.10;99.90
17284;DHT22;8760;52.248;20.952;2022-09-29T07:28:53;9.10;99.90
17284;DHT22;8760;52.248;20.952;2022-09-29T07:31:20;9.10;99.90
17284;DHT22;8760;52.248;20.952;2022-09-29T07:33:48;9.10;99.90
17284;DHT22;8760;52.248;20.952;2022-09-29T07:36:17;9.10;99.90
17284;DHT22;8760;52.248;20.952;2022-09-29T07:38:46;9.20;99.90
17284;DHT22;8760;52.248;20.952;2022-09-29T07:41:13;9.30;99.90
17284;DHT22;8760;52.248;20.952;2022-09-29T07:43:40;9.40;99.90
17284;DHT22;8760;52.248;20.952;2022-09-29T07:46:07;9.40;99.90
17284;DHT22;8760;52.248;20.952;2022-09-29T07:48:35;9.40;99.90
17284;DHT22;8760;52.248;20.952;2022-09-29T07:51:04;9.40;99.90
17284;DHT22;8760;52.248;20.952;2022-09-29T07:53:32;9.40;99.90
17284;DHT22;8760;52.248;20.952;2022-09-29T07:56:03;9.40;99.90
17284;DHT22;8760;52.248;20.952;2022-09-29T07:58:30;9.50;99.90
17284;DHT22;8760;52.248;20.952;2022-09-29T08:00:58;9.60;99.90
17284;DHT22;8760;52.248;20.952;2022-09-29T08:03:24;9.60;99.90
17284;DHT22;8760;52.248;20.952;2022-09-29T08:05:51;9.60;99.90
17284;DHT22;8760;52.248;20.952;2022-09-29T08:08:18;9.70;99.90
17284;DHT22;8760;52.248;20.952;2022-09-29T08:10:45;9.80;99.90
17284;DHT22;8760;52.248;20.952;2022-09-29T08:13:13;9.70;99.90
17284;DHT22;8760;52.248;20.952;2022-09-29T08:15:40;9.90;99.90
17284;DHT22;8760;52.248;20.952;2022-09-29T08:18:06;9.90;99.90
17284;DHT22;8760;52.248;20.952;2022-09-29T08:20:34;10.00;99.90
17284;DHT22;8760;52.248;20.952;2022-09-29T08:23:01;10.00;99.90
17284;DHT22;8760;52.248;20.952;2022-09-29T08:25:28;10.00;99.90
17284;DHT22;8760;52.248;20.952;2022-09-29T08:27:55;10.10;99.90
17284;DHT22;8760;52.248;20.952;2022-09-29T08:30:23;10.40;99.90
17284;DHT22;8760;52.248;20.952;2022-09-29T08:32:50;10.60;99.90
17284;DHT22;8760;52.248;20.952;2022-09-29T08:35:17;10.80;99.90
17284;DHT22;8760;52.248;20.952;2022-09-29T08:37:44;10.80;99.90
17284;DHT22;8760;52.248;20.952;2022-09-29T08:40:11;10.90;99.90
17284;DHT22;8760;52.248;20.952;2022-09-29T08:42:47;10.90;99.90
17284;DHT22;8760;52.248;20.952;2022-09-29T08:45:25;10.90;99.90
17284;DHT22;8760;52.248;20.952;2022-09-29T08:48:03;10.80;99.90
17284;DHT22;8760;52.248;20.952;2022-09-29T08:50:36;10.90;99.90
17284;DHT22;8760;52.248;20.952;2022-09-29T08:53:06;11.10;99.90
17284;DHT22;8760;52.248;20.952;2022-09-29T08:55:40;11.20;99.90
17284;DHT22;8760;52.248;20.952;2022-09-29T08:58:11;11.40;99.90
17284;DHT22;8760;52.248;20.952;2022-09-29T09:00:48;11.60;99.90
17284;DHT22;8760;52.248;20.952;2022-09-29T09:03:29;11.60;1.00
17284;DHT22;8760;52.248;20.952;2022-09-29T09:06:09;11.50;1.00
17284;DHT22;8760;52.248;20.952;2022-09-29T09:08:50;11.40;99.90
17284;DHT22;8760;52.248;20.952;2022-09-29T09:11:32;11.40;99.90
17284;DHT22;8760;52.248;20.952;2022-09-29T09:14:12;11.40;1.00
17284;DHT22;8760;52.248;20.952;2022-09-29T09:16:52;11.40;1.00
17284;DHT22;8760;52.248;20.952;2022-09-29T09:22:32;11.50;99.90
17284;DHT22;8760;52.248;20.952;2022-09-29T09:25:06;11.50;99.90
17284;DHT22;8760;52.248;20.952;2022-09-29T09:27:42;11.70;99.90
17284;DHT22;8760;52.248;20.952;2022-09-29T09:30:13;11.80;99.90
17284;DHT22;8760;52.248;20.952;2022-09-29T09:32:46;11.90;80.00
17284;DHT22;8760;52.248;20.952;2022-09-29T09:35:26;11.90;1.00
17284;DHT22;8760;52.248;20.952;2022-09-29T09:37:58;11.90;99.90
17284;DHT22;8760;52.248;20.952;2022-09-29T09:40:28;12.00;1.00
17284;DHT22;8760;52.248;20.952;2022-09-29T09:43:03;11.80;99.90
17284;DHT22;8760;52.248;20.952;2022-09-29T09:45:34;11.70;1.00
17284;DHT22;8760;52.248;20.952;2022-09-29T09:48:08;11.40;1.00
17284;DHT22;8760;52.248;20.952;2022-09-29T09:50:40;11.20;99.90
17284;DHT22;8760;52.248;20.952;2022-09-29T09:53:11;11.00;1.00
17284;DHT22;8760;52.248;20.952;2022-09-29T09:55:40;10.90;99.90
17284;DHT22;8760;52.248;20.952;2022-09-29T09:58:32;10.70;99.90
17284;DHT22;8760;52.248;20.952;2022-09-29T10:01:04;10.80;1.00
17284;DHT22;8760;52.248;20.952;2022-09-29T10:03:33;10.80;1.00
17284;DHT22;8760;52.248;20.952;2022-09-29T10:06:01;10.90;7.50
17284;DHT22;8760;52.248;20.952;2022-09-29T10:08:33;10.80;99.90
17284;DHT22;8760;52.248;20.952;2022-09-29T10:11:15;10.80;99.90
17284;DHT22;8760;52.248;20.952;2022-09-29T10:13:46;10.70;1.00
17284;DHT22;8760;52.248;20.952;2022-09-29T10:16:16;10.70;99.90
17284;DHT22;8760;52.248;20.952;2022-09-29T10:18:47;10.60;1.00
17284;DHT22;8760;52.248;20.952;2022-09-29T10:21:21;10.60;1.00
17284;DHT22;8760;52.248;20.952;2022-09-29T10:23:50;10.50;99.90
17284;DHT22;8760;52.248;20.952;2022-09-29T10:26:18;10.50;52.10
17284;DHT22;8760;52.248;20.952;2022-09-29T10:28:52;10.60;99.90
17284;DHT22;8760;52.248;20.952;2022-09-29T10:31:25;10.60;1.00
17284;DHT22;8760;52.248;20.952;2022-09-29T10:33:59;10.70;99.90
17284;DHT22;8760;52.248;20.952;2022-09-29T10:36:30;10.80;99.90
17284;DHT22;8760;52.248;20.952;2022-09-29T10:38:57;10.80;1.00
17284;DHT22;8760;52.248;20.952;2022-09-29T10:41:24;10.80;99.90
17284;DHT22;8760;52.248;20.952;2022-09-29T10:43:51;10.80;99.90
17284;DHT22;8760;52.248;20.952;2022-09-29T10:46:36;10.80;1.00
17284;DHT22;8760;52.248;20.952;2022-09-29T10:49:13;10.80;99.90
17284;DHT22;8760;52.248;20.952;2022-09-29T10:51:46;10.80;1.00
17284;DHT22;8760;52.248;20.952;2022-09-29T10:54:15;10.80;1.00
17284;DHT22;8760;52.248;20.952;2022-09-29T10:56:45;10.80;99.90
17284;DHT22;8760;52.248;20.952;2022-09-29T10:59:13;10.90;1.00
17284;DHT22;8760;52.248;20.952;2022-09-29T11:01:44;10.90;99.90
17284;DHT22;8760;52.248;20.952;2022-09-29T11:04:17;10.90;1.00
17284;DHT22;8760;52.248;20.952;2022-09-29T11:06:45;11.00;1.00
17284;DHT22;8760;52.248;20.952;2022-09-29T11:09:29;11.00;99.90
17284;DHT22;8760;52.248;20.952;2022-09-29T11:11:57;11.10;1.00
17284;DHT22;8760;52.248;20.952;2022-09-29T11:14:26;11.10;99.90
17284;DHT22;8760;52.248;20.952;2022-09-29T11:16:55;11.20;1.00
17284;DHT22;8760;52.248;20.952;2022-09-29T11:19:24;11.20;1.00
17284;DHT22;8760;52.248;20.952;2022-09-29T11:22:04;11.30;99.90
17284;DHT22;8760;52.248;20.952;2022-09-29T11:24:49;11.40;99.90
17284;DHT22;8760;52.248;20.952;2022-09-29T11:27:29;11.30;1.00
17284;DHT22;8760;52.248;20.952;2022-09-29T11:30:02;11.40;1.00
17284;DHT22;8760;52.248;20.952;2022-09-29T11:32:39;11.40;99.90
17284;DHT22;8760;52.248;20.952;2022-09-29T11:35:20;11.40;1.00
17284;DHT22;8760;52.248;20.952;2022-09-29T11:38:03;11.30;1.00
17284;DHT22;8760;52.248;20.952;2022-09-29T11:40:40;11.20;1.00
17284;DHT22;8760;52.248;20.952;2022-09-29T11:43:25;11.20;1.00
17284;DHT22;8760;52.248;20.952;2022-09-29T11:46:05;11.30;1.00
17284;DHT22;8760;52.248;20.952;2022-09-29T11:48:51;11.30;99.90
17284;DHT22;8760;52.248;20.952;2022-09-29T11:51:25;11.40;1.00
17284;DHT22;8760;52.248;20.952;2022-09-29T11:54:05;11.50;1.00
17284;DHT22;8760;52.248;20.952;2022-09-29T11:56:41;11.50;99.90
17284;DHT22;8760;52.248;20.952;2022-09-29T11:59:34;11.50;1.00
17284;DHT22;8760;52.248;20.952;2022-09-29T12:02:26;11.50;1.00
17284;DHT22;8760;52.248;20.952;2022-09-29T12:04:57;11.50;99.90
17284;DHT22;8760;52.248;20.952;2022-09-29T12:07:37;11.60;99.90
17284;DHT22;8760;52.248;20.952;2022-09-29T12:10:31;11.70;99.90
17284;DHT22;8760;52.248;20.952;2022-09-29T12:13:07;11.70;1.00
17284;DHT22;8760;52.248;20.952;2022-09-29T12:15:47;11.70;1.00
17284;DHT22;8760;52.248;20.952;2022-09-29T12:18:20;11.80;28.30
17284;DHT22;8760;52.248;20.952;2022-09-29T12:20:52;12.00;99.90
17284;DHT22;8760;52.248;20.952;2022-09-29T12:23:23;12.40;99.90
17284;DHT22;8760;52.248;20.952;2022-09-29T12:25:57;12.60;1.00
17284;DHT22;8760;52.248;20.952;2022-09-29T12:28:29;12.90;30.90
17284;DHT22;8760;52.248;20.952;2022-09-29T12:31:01;13.00;1.00
17284;DHT22;8760;52.248;20.952;2022-09-29T12:33:32;13.10;1.00
17284;DHT22;8760;52.248;20.952;2022-09-29T12:36:11;13.10;1.00
17284;DHT22;8760;52.248;20.952;2022-09-29T12:39:00;12.90;1.00
17284;DHT22;8760;52.248;20.952;2022-09-29T12:41:34;12.80;1.00
17284;DHT22;8760;52.248;20.952;2022-09-29T12:44:10;12.80;1.00
17284;DHT22;8760;52.248;20.952;2022-09-29T12:46:43;12.60;1.00
17284;DHT22;8760;52.248;20.952;2022-09-29T12:49:17;12.40;1.00
17284;DHT22;8760;52.248;20.952;2022-09-29T12:51:46;12.30;28.00
17284;DHT22;8760;52.248;20.952;2022-09-29T12:54:19;12.30;99.90
17284;DHT22;8760;52.248;20.952;2022-09-29T12:56:52;12.20;1.00
17284;DHT22;8760;52.248;20.952;2022-09-29T12:59:27;12.10;1.00
17284;DHT22;8760;52.248;20.952;2022-09-29T13:01:57;12.20;1.00
17284;DHT22;8760;52.248;20.952;2022-09-29T13:10:41;12.10;1.00
17284;DHT22;8760;52.248;20.952;2022-09-29T13:13:53;12.10;1.00
17284;DHT22;8760;52.248;20.952;2022-09-29T13:16:33;12.10;1.00
17284;DHT22;8760;52.248;20.952;2022-09-29T13:19:33;12.10;1.00
17284;DHT22;8760;52.248;20.952;2022-09-29T13:22:23;12.10;99.90
17284;DHT22;8760;52.248;20.952;2022-09-29T13:24:55;12.10;1.00
17284;DHT22;8760;52.248;20.952;2022-09-29T13:27:28;12.10;16.40
17284;DHT22;8760;52.248;20.952;2022-09-29T13:30:02;12.10;99.90
17284;DHT22;8760;52.248;20.952;2022-09-29T13:32:30;12.10;20.10
17284;DHT22;8760;52.248;20.952;2022-09-29T13:34:59;12.00;1.00
17284;DHT22;8760;52.248;20.952;2022-09-29T13:37:31;12.00;99.90
17284;DHT22;8760;52.248;20.952;2022-09-29T13:40:01;11.90;1.00
17284;DHT22;8760;52.248;20.952;2022-09-29T13:42:42;11.80;99.90
17284;DHT22;8760;52.248;20.952;2022-09-29T13:45:40;11.90;1.00
17284;DHT22;8760;52.248;20.952;2022-09-29T13:51:45;11.80;1.00
17284;DHT22;8760;52.248;20.952;2022-09-29T13:54:23;11.90;99.90
17284;DHT22;8760;52.248;20.952;2022-09-29T13:56:57;11.80;1.00
17284;DHT22;8760;52.248;20.952;2022-09-29T13:59:27;11.80;1.00
17284;DHT22;8760;52.248;20.952;2022-09-29T14:01:54;11.80;99.90
17284;DHT22;8760;52.248;20.952;2022-09-29T14:04:44;11.80;1.00
17284;DHT22;8760;52.248;20.952;2022-09-29T14:07:13;11.70;1.00
17284;DHT22;8760;52.248;20.952;2022-09-29T14:09:42;11.80;1.00
17284;DHT22;8760;52.248;20.952;2022-09-29T14:12:18;11.80;99.90
17284;DHT22;8760;52.248;20.952;2022-09-29T14:14:52;11.80;1.00
17284;DHT22;8760;52.248;20.952;2022-09-29T14:17:23;11.90;1.00
17284;DHT22;8760;52.248;20.952;2022-09-29T14:19:58;11.90;3.10
17284;DHT22;8760;52.248;20.952;2022-09-29T14:22:58;11.90;1.00
17284;DHT22;8760;52.248;20.952;2022-09-29T14:25:47;12.10;1.00
17284;DHT22;8760;52.248;20.952;2022-09-29T14:28:21;12.40;99.90
17284;DHT22;8760;52.248;20.952;2022-09-29T14:30:51;12.80;1.00
17284;DHT22;8760;52.248;20.952;2022-09-29T14:33:23;13.10;29.80
17284;DHT22;8760;52.248;20.952;2022-09-29T14:36:00;13.10;99.90
17284;DHT22;8760;52.248;20.952;2022-09-29T14:38:30;12.90;99.90
17284;DHT22;8760;52.248;20.952;2022-09-29T14:41:01;13.10;99.90
17284;DHT22;8760;52.248;20.952;2022-09-29T14:43:37;13.00;89.70
17284;DHT22;8760;52.248;20.952;2022-09-29T14:46:19;12.90;31.40
17284;DHT22;8760;52.248;20.952;2022-09-29T14:49:23;12.60;1.00
17284;DHT22;8760;52.248;20.952;2022-09-29T14:52:14;12.50;1.00
17284;DHT22;8760;52.248;20.952;2022-09-29T14:54:52;12.40;1.00
17284;DHT22;8760;52.248;20.952;2022-09-29T14:57:31;12.40;1.00
17284;DHT22;8760;52.248;20.952;2022-09-29T15:00:08;12.60;99.90
17284;DHT22;8760;52.248;20.952;2022-09-29T15:02:42;12.60;99.90
17284;DHT22;8760;52.248;20.952;2022-09-29T15:05:22;12.70;1.00
17284;DHT22;8760;52.248;20.952;2022-09-29T15:07:49;12.90;99.90
17284;DHT22;8760;52.248;20.952;2022-09-29T15:10:24;13.00;1.00
17284;DHT22;8760;52.248;20.952;2022-09-29T15:12:51;13.20;99.90
17284;DHT22;8760;52.248;20.952;2022-09-29T15:15:32;13.20;99.90
17284;DHT22;8760;52.248;20.952;2022-09-29T15:18:08;13.20;99.90
17284;DHT22;8760;52.248;20.952;2022-09-29T15:20:52;13.10;99.90
17284;DHT22;8760;52.248;20.952;2022-09-29T15:26:20;13.20;99.90
17284;DHT22;8760;52.248;20.952;2022-09-29T15:28:47;13.20;1.00
17284;DHT22;8760;52.248;20.952;2022-09-29T15:31:16;13.30;99.90
17284;DHT22;8760;52.248;20.952;2022-09-29T15:33:45;13.40;99.90
17284;DHT22;8760;52.248;20.952;2022-09-29T15:36:18;13.30;1.00
17284;DHT22;8760;52.248;20.952;2022-09-29T15:38:50;13.00;1.00
17284;DHT22;8760;52.248;20.952;2022-09-29T15:41:19;12.50;99.90
17284;DHT22;8760;52.248;20.952;2022-09-29T15:43:53;12.20;99.90
17284;DHT22;8760;52.248;20.952;2022-09-29T15:46:23;11.90;99.90
17284;DHT22;8760;52.248;20.952;2022-09-29T15:49:13;11.60;99.90
17284;DHT22;8760;52.248;20.952;2022-09-29T15:51:43;11.30;1.00
17284;DHT22;8760;52.248;20.952;2022-09-29T15:54:13;11.10;1.00
17284;DHT22;8760;52.248;20.952;2022-09-29T15:56:40;10.90;1.00
17284;DHT22;8760;52.248;20.952;2022-09-29T15:59:39;10.80;1.00
17284;DHT22;8760;52.248;20.952;2022-09-29T16:02:14;10.50;1.00
17284;DHT22;8760;52.248;20.952;2022-09-29T16:04:45;10.40;1.00
17284;DHT22;8760;52.248;20.952;2022-09-29T16:07:18;10.20;1.00
17284;DHT22;8760;52.248;20.952;2022-09-29T16:09:46;10.00;1.00
17284;DHT22;8760;52.248;20.952;2022-09-29T16:12:15;9.80;13.40
17284;DHT22;8760;52.248;20.952;2022-09-29T16:14:43;9.70;32.50
17284;DHT22;8760;52.248;20.952;2022-09-29T16:17:11;9.60;69.40
17284;DHT22;8760;52.248;20.952;2022-09-29T16:19:41;9.50;96.30
17284;DHT22;8760;52.248;20.952;2022-09-29T16:22:17;9.40;99.90
17284;DHT22;8760;52.248;20.952;2022-09-29T16:24:51;9.40;99.90
17284;DHT22;8760;52.248;20.952;2022-09-29T16:27:37;9.30;99.90
17284;DHT22;8760;52.248;20.952;2022-09-29T16:30:17;9.20;99.90